Mesa, Arizona
Current Conditions -  °F | °C
As of 8:47 PM on Sunday 23 Nov 2014 (Local Time) from KCHD Reporting Station
Scattered Clouds Scattered Clouds  
Wind Chill: 55°   Ceiling: Unl
Heat Index: 55°   Visibility: 15mi
Dew Point: 12°   Wind: 6mph
Humidity: 18%   Direction: NA
Pressure: 30.09"   Gusts: NA
Location:  33.42°N, 111.83°W
Report Text: KCHD 240347Z VRB05KT 15SM SCT200 13/M11 A3009 RMK LAST
Loading
Personal Weather Stations






























Interactive Weather Map New forecast layout! Learn more

10-Day Weather Forecast

Advertisements
Track Severe Weather on mobile